CST,Max TemperatureF,Mean TemperatureF,Min TemperatureF,Max Dew PointF,MeanDew PointF,Min DewpointF,Max Humidity, Mean Humidity, Min Humidity, Max Sea Level PressureIn, Mean Sea Level PressureIn, Min Sea Level PressureIn, Max VisibilityMiles, Mean VisibilityMiles, Min VisibilityMiles, Max Wind SpeedMPH, Mean Wind SpeedMPH, Max Gust SpeedMPH,PrecipitationIn, CloudCover, Events, WindDirDegrees
2011-11-1,73,55,37,44,40,36,100,65,29,30.27,30.21,30.17,10,9,4,12,2,15,0.00,0,,154
2011-11-2,75,58,40,54,46,41,100,69,38,30.25,30.17,30.10,10,10,7,18,7,29,0.00,0,,146
2011-11-3,64,53,42,61,48,39,93,72,51,30.14,30.08,29.99,10,9,2,21,8,26,0.23,6,Rain,265
2011-11-4,58,50,42,47,43,37,93,78,62,30.21,30.15,30.11,10,10,6,17,6,26,0.00,6,,348
2011-11-5,71,56,40,47,45,39,96,69,42,30.20,30.14,30.09,10,9,4,15,6,20,0.00,0,,132
2011-11-6,74,61,47,55,48,37,86,68,49,30.26,30.20,30.14,10,10,10,15,8,21,0.00,1,,133
2011-11-7,79,67,54,57,54,51,86,65,43,30.26,30.19,30.12,10,10,10,15,8,20,0.00,1,,137
2011-11-8,79,66,53,64,60,52,93,74,54,30.12,30.05,29.98,10,10,10,18,10,71,0.00,5,,154
2011-11-9,69,59,49,65,52,39,93,73,52,30.23,30.08,29.98,10,10,5,20,9,35,0.08,5,Rain,300
2011-11-10,59,46,33,38,30,23,82,53,24,30.31,30.26,30.23,10,10,10,20,9,28,0.00,0,,338
2011-11-11,67,49,30,33,29,25,92,56,20,30.30,30.23,30.16,10,10,10,9,2,16,0.00,0,,198
2011-11-12,70,54,37,48,42,31,82,64,45,30.24,30.16,30.07,10,10,10,20,7,26,0.00,1,,166
2011-11-13,79,69,59,62,55,49,81,62,42,30.08,30.02,29.96,10,10,10,16,9,25,0.00,3,,170
2011-11-14,83,73,63,66,61,55,93,67,40,30.03,29.96,29.88,10,10,9,12,5,24,0.00,4,,169
2011-11-15,73,68,63,70,65,62,100,90,79,29.92,29.87,29.79,10,8,2,16,5,20,0.19,6,Rain-Thunderstorm,163
2011-11-16,79,66,52,68,62,47,93,77,60,30.13,29.85,29.73,10,8,2,16,8,21,0.41,7,Rain-Thunderstorm,277
2011-11-17,57,45,33,46,31,22,89,58,26,30.38,30.30,30.14,10,10,10,18,9,31,0.00,1,,3
2011-11-18,61,46,31,35,27,20,82,53,24,30.36,30.27,30.18,10,10,10,17,7,21,0.00,0,,128
2011-11-19,75,57,38,61,51,35,92,71,50,30.19,30.15,30.09,10,9,6,18,6,24,0.00,3,,145
2011-11-20,78,70,61,66,63,60,100,85,69,30.23,30.18,30.15,10,9,2,13,7,18,0.00,4,,161
2011-11-21,77,67,56,67,63,55,100,82,64,30.25,30.16,30.03,10,6,0,14,4,20,0.00,5,Fog,164
2011-11-22,78,70,61,68,64,57,97,80,62,30.10,30.00,29.91,10,8,0,39,5,51,1.00,7,Rain-Thunderstorm,221
2011-11-23,63,55,47,54,48,45,93,77,60,30.30,30.21,30.11,10,10,10,14,8,21,0.00,4,,356
2011-11-24,67,55,42,49,44,40,96,71,45,30.37,30.30,30.27,10,9,6,9,3,18,0.00,0,,44
2011-11-25,73,56,38,56,48,38,96,73,49,30.27,30.18,30.08,10,10,6,15,6,20,0.00,1,,148
2011-11-26,71,65,58,65,61,54,100,84,68,30.07,29.97,29.89,10,7,1,20,10,58,1.38,8,Rain,147
2011-11-27,58,50,42,57,47,39,100,93,86,30.07,30.00,29.91,10,8,2,16,8,22,0.09,8,Rain,310
2011-11-28,43,40,36,39,36,32,93,86,79,30.03,29.98,29.94,10,9,4,17,8,24,0.12,8,Rain,297
2011-11-29,54,45,35,43,34,30,92,71,50,30.17,30.02,29.89,10,10,10,16,6,23,0.00,2,,291
2011-11-30,55,42,28,37,31,27,100,68,35,30.26,30.20,30.16,10,9,6,12,1,17,0.00,0,,342